.
WxDataArchive / Data Records for 2009-01-23
2009-01-22 January 2009 2009-01-24

Data Records for Friday, 23 January 2009

Time	Temp	Chill	HIndex	Humid	Dewpt	 Wind 	HiWind	WindDir	Rain 	Barom 
-----	----	-----	------	-----	-----	------	------	-------	-----	----- 
00:00	19.5	19.5	19.5	90	17.1	0	0	---	0.00	29.914 
00:05	19.4	19.4	19.4	90	17.0	0	0	---	0.00	29.909 
00:10	19.2	19.2	19.2	90	16.8	0	0	---	0.00	29.910 
00:15	19.1	19.1	19.1	90	16.7	0	0	---	0.00	29.908 
00:20	19.2	19.2	19.2	90	16.8	0	0	---	0.00	29.909 
00:25	19.5	19.5	19.5	91	17.3	0	0	---	0.00	29.908 
00:30	20.2	20.2	20.2	91	18.0	0	0	---	0.00	29.909 
00:35	20.6	20.6	20.6	92	18.7	0	0	---	0.00	29.907 
00:40	21.1	21.1	21.1	92	19.1	0	0	---	0.00	29.905 
00:45	21.4	21.4	21.4	92	19.4	0	0	---	0.00	29.901 
00:50	21.6	21.6	21.6	92	19.6	0	0	---	0.00	29.899 
00:55	21.8	21.8	21.8	92	19.8	0	0	---	0.00	29.895 
01:00	21.9	21.9	21.9	92	19.9	0	0	---	0.00	29.894 
01:05	22.1	22.1	22.1	92	20.1	0	0	---	0.00	29.891 
01:10	22.4	22.4	22.4	92	20.4	0	0	---	0.00	29.890 
01:15	22.4	22.4	22.4	92	20.4	0	0	---	0.00	29.889 
01:20	22.5	22.5	22.5	92	20.5	0	0	---	0.00	29.886 
01:25	22.5	22.5	22.5	92	20.5	0	0	---	0.00	29.887 
01:30	22.7	22.7	22.7	92	20.7	0	0	---	0.00	29.887 
01:35	23.2	23.2	23.2	92	21.2	0	0	---	0.00	29.886 
01:40	23.5	23.5	23.5	93	21.8	0	0	---	0.00	29.885 
01:45	23.8	23.8	23.8	93	22.1	0	0	---	0.00	29.883 
01:50	24.1	24.1	24.1	93	22.4	0	0	---	0.00	29.881 
01:55	24.2	24.2	24.2	93	22.5	0	0	---	0.00	29.880 
02:00	24.4	24.4	24.4	93	22.7	0	0	---	0.00	29.877 
02:05	24.7	24.7	24.7	93	23.0	0	0	---	0.00	29.874 
02:10	24.8	24.8	24.8	93	23.1	0	0	---	0.00	29.873 
02:15	24.8	24.8	24.8	93	23.1	0	0	---	0.00	29.871 
02:20	24.7	24.7	24.7	93	23.0	0	0	---	0.00	29.871 
02:25	24.7	24.7	24.7	93	23.0	0	0	---	0.00	29.870 
02:30	24.8	24.8	24.8	93	23.1	0	0	---	0.00	29.868 
02:35	25.0	25.0	25.0	93	23.3	0	0	---	0.00	29.867 
02:40	25.1	25.1	25.1	93	23.4	0	0	---	0.00	29.865 
02:45	25.4	25.4	25.4	93	23.7	0	1	248	0.00	29.863 
02:50	25.6	25.6	25.6	93	23.9	0	0	---	0.00	29.859 
02:55	25.8	25.8	25.8	93	24.1	0	1	248	0.00	29.854 
03:00	26.0	26.0	26.0	93	24.3	0	0	---	0.00	29.851 
03:05	26.0	26.0	26.0	92	24.0	0	0	---	0.00	29.849 
03:10	26.1	26.1	26.1	92	24.1	0	1	248	0.00	29.849 
03:15	26.1	26.1	26.1	92	24.1	0	0	---	0.00	29.850 
03:20	26.1	26.1	26.1	92	24.1	0	1	248	0.00	29.848 
03:25	26.4	26.4	26.4	92	24.4	0	1	248	0.00	29.847 
03:30	26.6	26.6	26.6	92	24.6	0	0	---	0.00	29.846 
03:35	26.6	26.6	26.6	91	24.3	0	0	---	0.00	29.841 
03:40	26.4	26.4	26.4	91	24.1	0	0	---	0.00	29.837 
03:45	26.4	26.4	26.4	90	23.9	0	0	---	0.00	29.835 
03:50	26.1	26.1	26.1	90	23.6	0	0	---	0.00	29.834 
03:55	26.0	26.0	26.0	90	23.5	0	0	---	0.00	29.834 
04:00	25.8	25.8	25.8	90	23.3	0	0	---	0.00	29.832 
04:05	25.8	25.8	25.8	90	23.3	0	1	248	0.00	29.832 
04:10	26.0	26.0	26.0	90	23.5	0	0	---	0.00	29.826 
04:15	26.1	26.1	26.1	90	23.6	0	1	248	0.00	29.820 
04:20	26.3	26.3	26.3	90	23.8	0	0	---	0.00	29.820 
04:25	26.3	26.3	26.3	89	23.5	0	0	---	0.00	29.820 
04:30	26.3	26.3	26.3	89	23.5	0	0	---	0.00	29.819 
04:35	26.4	26.4	26.4	89	23.6	0	1	248	0.00	29.817 
04:40	26.6	26.6	26.6	88	23.5	0	1	248	0.00	29.814 
04:45	26.7	26.7	26.7	88	23.6	0	1	248	0.00	29.809 
04:50	26.9	26.9	26.9	88	23.8	0	0	---	0.00	29.806 
04:55	27.0	27.0	27.0	88	23.9	0	1	248	0.00	29.803 
05:00	27.0	27.0	27.0	87	23.7	0	0	---	0.00	29.802 
05:05	26.7	26.7	26.7	87	23.4	0	0	---	0.00	29.806 
05:10	26.6	26.6	26.6	87	23.3	0	0	---	0.00	29.805 
05:15	26.6	26.6	26.6	87	23.3	0	0	---	0.00	29.806 
05:20	26.6	26.6	26.6	88	23.5	0	1	248	0.00	29.803 
05:25	26.7	26.7	26.7	88	23.6	0	1	248	0.00	29.803 
05:30	26.7	26.7	26.7	88	23.6	0	1	248	0.00	29.803 
05:35	26.6	26.6	26.6	88	23.5	0	1	248	0.00	29.801 
05:40	26.7	26.7	26.7	88	23.6	0	1	248	0.00	29.796 
05:45	26.7	26.7	26.7	88	23.6	0	0	---	0.00	29.791 
05:50	26.7	26.7	26.7	88	23.6	0	1	248	0.00	29.791 
05:55	27.2	27.2	27.2	88	24.1	0	2	248	0.00	29.792 
06:00	27.5	27.5	27.5	88	24.4	0	2	248	0.00	29.792 
06:05	27.6	27.6	27.6	88	24.5	0	2	248	0.00	29.795 
06:10	27.9	27.9	27.9	88	24.8	0	2	248	0.00	29.794 
06:15	28.2	28.2	28.2	88	25.1	0	2	270	0.00	29.793 
06:20	28.7	28.7	28.7	88	25.6	0	2	270	0.00	29.791 
06:25	29.0	29.0	29.0	88	25.9	0	2	248	0.00	29.792 
06:30	29.4	29.4	29.4	88	26.3	0	2	248	0.00	29.790 
06:35	29.8	29.8	29.8	88	26.7	0	2	248	0.00	29.787 
06:40	30.1	30.1	30.1	88	27.0	1	3	248	0.00	29.791 
06:45	30.7	30.7	30.7	88	27.6	1	4	270	0.00	29.788 
06:50	31.0	31.0	31.0	87	27.6	1	3	248	0.00	29.789 
06:55	31.5	31.5	31.5	86	27.8	1	4	248	0.00	29.790 
07:00	31.8	31.8	31.8	86	28.1	1	5	248	0.00	29.790 
07:05	32.2	32.2	32.2	86	28.5	1	5	248	0.00	29.791 
07:10	32.5	32.5	32.5	85	28.5	1	5	248	0.00	29.793 
07:15	32.9	32.9	32.9	84	28.6	1	4	248	0.00	29.795 
07:20	33.2	33.2	33.2	84	28.9	2	4	248	0.00	29.798 
07:25	33.5	33.5	33.5	83	28.9	2	6	248	0.00	29.798 
07:30	33.8	33.8	33.8	83	29.2	2	6	248	0.00	29.799 
07:35	34.0	34.0	34.0	82	29.1	1	3	248	0.00	29.799 
07:40	34.0	34.0	34.0	82	29.1	2	5	248	0.00	29.794 
07:45	34.1	34.1	34.1	81	28.9	2	5	248	0.00	29.800 
07:50	34.1	34.1	34.1	81	28.9	2	5	248	0.00	29.801 
07:55	34.3	34.3	34.3	81	29.1	2	5	248	0.00	29.797 
08:00	34.3	34.3	34.3	81	29.1	1	5	248	0.00	29.800 
08:05	34.3	34.3	34.3	81	29.1	2	5	248	0.00	29.805 
08:10	34.3	34.3	34.3	81	29.1	2	6	248	0.00	29.806 
08:15	34.3	34.3	34.3	81	29.1	2	4	248	0.00	29.807 
08:20	34.4	34.4	34.4	81	29.2	2	4	248	0.00	29.806 
08:25	34.4	34.4	34.4	81	29.2	2	9	248	0.00	29.807 
08:30	34.6	34.6	34.6	81	29.4	2	10	248	0.00	29.806 
08:35	34.9	34.9	34.9	81	29.7	2	6	248	0.00	29.806 
08:40	35.0	35.0	35.0	81	29.8	2	6	248	0.00	29.805 
08:45	35.2	35.2	35.2	80	29.7	2	5	248	0.00	29.806 
08:50	35.5	35.5	35.5	80	30.0	2	5	248	0.00	29.806 
08:55	35.6	35.6	35.6	80	30.1	2	7	270	0.00	29.806 
09:00	35.9	35.9	35.9	80	30.3	3	7	248	0.00	29.806 
09:05	36.0	36.0	36.0	79	30.1	2	6	248	0.00	29.810 
09:10	36.3	36.3	36.3	79	30.4	3	7	248	0.00	29.808 
09:15	36.6	36.6	36.6	78	30.4	3	7	248	0.00	29.807 
09:20	36.9	33.7	36.9	78	30.7	4	9	248	0.00	29.810 
09:25	37.0	33.9	37.0	77	30.5	4	12	248	0.00	29.814 
09:30	37.2	34.1	37.2	77	30.7	4	9	248	0.00	29.817 
09:35	37.5	37.5	37.5	77	31.0	3	11	248	0.00	29.813 
09:40	37.5	37.5	37.5	77	31.0	3	9	248	0.00	29.811 
09:45	37.6	34.5	37.6	76	30.7	4	11	248	0.00	29.812 
09:50	37.8	37.8	37.8	76	30.9	3	9	248	0.00	29.811 
09:55	37.8	37.8	37.8	76	30.9	3	10	270	0.00	29.813 
10:00	37.8	37.8	37.8	76	30.9	3	10	248	0.00	29.818 
10:05	37.8	34.8	37.8	76	30.9	4	10	248	0.00	29.819 
10:10	37.8	34.8	37.8	75	30.6	4	11	248	0.00	29.821 
10:15	37.6	37.6	37.6	75	30.4	3	10	248	0.00	29.819 
10:20	37.6	37.6	37.6	75	30.4	3	7	248	0.00	29.817 
10:25	37.8	37.8	37.8	75	30.6	3	11	248	0.00	29.815 
10:30	38.0	38.0	38.0	75	30.8	2	6	248	0.00	29.820 
10:35	38.0	38.0	38.0	74	30.5	3	7	248	0.00	29.820 
10:40	38.2	38.2	38.2	74	30.7	3	7	248	0.00	29.821 
10:45	38.3	35.4	38.3	73	30.4	4	10	248	0.00	29.822 
10:50	38.8	35.9	38.8	72	30.6	4	11	248	0.00	29.821 
10:55	39.1	39.1	39.1	71	30.5	3	7	270	0.00	29.823 
11:00	39.3	39.3	39.3	70	30.3	3	9	270	0.00	29.827 
11:05	39.3	35.7	39.3	69	30.0	5	15	248	0.00	29.825 
11:10	39.1	36.3	39.1	69	29.8	4	10	270	0.00	29.828 
11:15	38.9	36.0	38.9	69	29.6	4	14	270	0.00	29.831 
11:20	38.8	35.9	38.8	70	29.9	4	9	270	0.00	29.830 
11:25	38.8	38.8	38.8	70	29.9	3	7	270	0.00	29.837 
11:30	38.8	35.1	38.8	70	29.9	5	13	270	0.00	29.837 
11:35	38.9	38.9	38.9	70	30.0	3	10	270	0.01	29.833 
11:40	38.9	36.0	38.9	70	30.0	4	14	270	0.00	29.834 
11:45	38.9	36.0	38.9	70	30.0	4	11	270	0.00	29.837 
11:50	38.9	36.0	38.9	69	29.6	4	9	270	0.00	29.836 
11:55	38.9	36.0	38.9	69	29.6	4	7	270	0.00	29.836 
12:00	38.9	38.9	38.9	70	30.0	3	10	270	0.00	29.837 
12:05	38.8	35.9	38.8	69	29.5	4	10	270	0.00	29.826 
12:10	38.5	34.7	38.5	69	29.2	5	12	270	0.00	29.830 
12:15	38.6	38.6	38.6	71	30.0	3	9	270	0.00	29.833 
12:20	39.1	39.1	39.1	69	29.8	3	11	270	0.00	29.835 
12:25	39.2	39.2	39.2	69	29.9	3	9	270	0.00	29.831 
12:30	39.3	39.3	39.3	68	29.6	3	11	270	0.00	29.829 
12:35	39.2	36.4	39.2	68	29.5	4	12	270	0.00	29.832 
12:40	39.2	36.4	39.2	67	29.2	4	9	270	0.00	29.831 
12:45	39.3	36.5	39.3	66	28.9	4	7	270	0.00	29.831 
12:50	39.2	36.4	39.2	66	28.8	4	10	270	0.01	29.831 
12:55	39.3	39.3	39.3	66	28.9	3	10	270	0.00	29.833 
13:00	39.1	39.1	39.1	66	28.7	3	7	270	0.00	29.835 
13:05	39.1	39.1	39.1	66	28.7	3	7	270	0.00	29.832 
13:10	39.1	36.3	39.1	66	28.7	4	7	270	0.01	29.834 
13:15	38.9	36.0	38.9	66	28.5	4	9	270	0.00	29.834 
13:20	38.8	35.9	38.8	65	28.1	4	12	270	0.00	29.837 
13:25	38.8	38.8	38.8	65	28.1	3	6	270	0.00	29.832 
13:30	38.8	35.9	38.8	63	27.3	4	6	270	0.01	29.836 
13:35	38.8	35.9	38.8	63	27.3	4	10	270	0.00	29.841 
13:40	38.3	34.5	38.3	63	26.8	5	10	270	0.00	29.837 
13:45	38.3	35.4	38.3	63	26.8	4	7	270	0.01	29.839 
13:50	38.5	38.5	38.5	63	27.0	3	6	270	0.00	29.842 
13:55	38.0	34.1	38.0	62	26.2	5	12	270	0.00	29.837 
14:00	37.8	34.8	37.8	63	26.4	4	7	270	0.00	29.840 
14:05	37.5	37.5	37.5	63	26.1	3	9	270	0.01	29.840 
14:10	37.3	37.3	37.3	64	26.3	3	10	292	0.00	29.845 
14:15	37.3	37.3	37.3	65	26.6	3	6	270	0.00	29.849 
14:20	37.2	37.2	37.2	65	26.5	3	9	270	0.01	29.852 
14:25	36.9	33.7	36.9	65	26.3	4	11	270	0.00	29.857 
14:30	36.6	36.6	36.6	67	26.7	3	7	270	0.00	29.863 
14:35	36.5	36.5	36.5	68	27.0	3	7	315	0.00	29.865 
14:40	36.6	36.6	36.6	68	27.1	3	5	270	0.01	29.867 
14:45	36.6	36.6	36.6	69	27.4	2	5	270	0.00	29.871 
14:50	36.8	36.8	36.8	69	27.6	1	5	338	0.00	29.877 
14:55	36.0	32.7	36.0	67	26.1	4	9	292	0.00	29.884 
15:00	35.2	31.8	35.2	68	25.7	4	7	270	0.01	29.895 
15:05	34.9	34.9	34.9	69	25.8	3	9	315	0.00	29.898 
15:10	34.3	34.3	34.3	69	25.2	3	9	315	0.01	29.900 
15:15	33.8	33.8	33.8	70	25.1	3	7	292	0.01	29.903 
15:20	33.4	33.4	33.4	71	25.0	3	10	315	0.00	29.912 
15:25	33.1	33.1	33.1	72	25.1	3	11	315	0.00	29.919 
15:30	32.8	32.8	32.8	73	25.1	3	10	270	0.01	29.928 
15:35	32.7	28.9	32.7	73	25.0	4	10	270	0.00	29.933 
15:40	32.2	28.3	32.2	73	24.5	4	12	292	0.00	29.938 
15:45	31.6	26.6	31.6	73	24.0	5	10	315	0.00	29.946 
15:50	31.3	27.3	31.3	74	24.0	4	10	292	0.00	29.951 
15:55	30.7	26.6	30.7	75	23.7	4	10	315	0.00	29.951 
16:00	30.3	26.1	30.3	76	23.7	4	13	315	0.00	29.956 
16:05	30.0	25.8	30.0	76	23.4	4	10	270	0.00	29.965 
16:10	29.5	24.1	29.5	76	22.9	5	11	315	0.00	29.968 
16:15	29.3	25.0	29.3	77	23.0	4	9	338	0.00	29.968 
16:20	29.1	24.7	29.1	77	22.8	4	7	270	0.00	29.968 
16:25	29.0	24.6	29.0	77	22.7	4	13	270	0.00	29.976 
16:30	28.8	24.4	28.8	77	22.5	4	7	270	0.00	29.981 
16:35	28.8	28.8	28.8	78	22.8	3	12	270	0.00	29.985 
16:40	28.7	24.3	28.7	78	22.7	4	11	270	0.00	29.993 
16:45	28.5	28.5	28.5	78	22.5	2	9	292	0.00	29.999 
16:50	28.4	28.4	28.4	78	22.4	3	9	315	0.00	30.001 
16:55	28.2	23.7	28.2	79	22.5	4	11	270	0.00	30.008 
17:00	28.2	28.2	28.2	79	22.5	3	11	270	0.00	30.015 
17:05	28.2	28.2	28.2	79	22.5	3	7	270	0.00	30.015 
17:10	28.1	28.1	28.1	80	22.7	3	10	270	0.00	30.017 
17:15	28.1	28.1	28.1	80	22.7	2	10	315	0.00	30.025 
17:20	28.1	28.1	28.1	80	22.7	3	6	315	0.00	30.031 
17:25	28.1	28.1	28.1	80	22.7	2	8	315	0.00	30.033 
17:30	28.1	28.1	28.1	81	23.0	2	10	270	0.00	30.034 
17:35	28.1	28.1	28.1	81	23.0	2	9	315	0.00	30.033 
17:40	28.2	28.2	28.2	81	23.1	2	7	292	0.00	30.034 
17:45	28.2	28.2	28.2	81	23.1	2	10	315	0.00	30.044 
17:50	28.4	28.4	28.4	80	23.0	3	6	270	0.00	30.047 
17:55	28.4	28.4	28.4	79	22.7	3	10	315	0.00	30.055 
18:00	28.5	28.5	28.5	78	22.5	3	7	292	0.00	30.060 
18:05	28.5	24.0	28.5	77	22.2	4	8	315	0.00	30.058 
18:10	28.5	28.5	28.5	77	22.2	3	9	270	0.00	30.060 
18:15	28.7	23.2	28.7	76	22.1	5	12	292	0.00	30.066 
18:20	28.7	28.7	28.7	76	22.1	2	5	292	0.00	30.063 
18:25	28.7	28.7	28.7	76	22.1	2	4	315	0.00	30.071 
18:30	28.7	28.7	28.7	77	22.4	1	4	338	0.00	30.070 
18:35	28.7	28.7	28.7	77	22.4	3	9	292	0.00	30.073 
18:40	28.7	28.7	28.7	77	22.4	3	9	0	0.00	30.075 
18:45	28.7	28.7	28.7	77	22.4	2	6	270	0.00	30.074 
18:50	28.7	28.7	28.7	77	22.4	2	4	338	0.00	30.078 
18:55	28.7	28.7	28.7	76	22.1	3	7	315	0.00	30.089 
19:00	28.7	28.7	28.7	76	22.1	3	11	315	0.00	30.092 
19:05	28.8	28.8	28.8	75	21.9	3	7	315	0.00	30.091 
19:10	28.8	28.8	28.8	74	21.6	3	8	338	0.00	30.089 
19:15	28.8	28.8	28.8	74	21.6	2	4	338	0.00	30.103 
19:20	28.8	28.8	28.8	73	21.3	3	5	315	0.00	30.106 
19:25	28.8	28.8	28.8	72	20.9	3	6	315	0.00	30.109 
19:30	29.0	29.0	29.0	72	21.1	3	9	292	0.00	30.105 
19:35	29.0	29.0	29.0	71	20.8	3	10	315	0.00	30.108 
19:40	29.0	29.0	29.0	71	20.8	3	6	270	0.00	30.116 
19:45	29.0	29.0	29.0	71	20.8	3	7	292	0.00	30.118 
19:50	29.0	29.0	29.0	71	20.8	2	7	292	0.00	30.117 
19:55	29.0	29.0	29.0	71	20.8	1	5	270	0.00	30.120 
20:00	29.0	29.0	29.0	71	20.8	2	7	315	0.00	30.120 
20:05	29.0	24.6	29.0	71	20.8	4	7	315	0.00	30.119 
20:10	29.0	29.0	29.0	71	20.8	2	6	338	0.00	30.121 
20:15	29.0	29.0	29.0	71	20.8	2	6	315	0.00	30.120 
20:20	29.0	29.0	29.0	70	20.5	2	7	338	0.00	30.118 
20:25	28.8	28.8	28.8	71	20.6	2	4	270	0.00	30.118 
20:30	28.8	28.8	28.8	69	19.9	2	7	315	0.00	30.120 
20:35	28.8	28.8	28.8	69	19.9	3	11	270	0.00	30.120 
20:40	28.8	28.8	28.8	68	19.6	2	6	315	0.00	30.121 
20:45	28.8	28.8	28.8	68	19.6	2	5	292	0.00	30.121 
20:50	28.8	28.8	28.8	68	19.6	2	10	315	0.00	30.124 
20:55	28.8	28.8	28.8	68	19.6	2	5	315	0.00	30.130 
21:00	28.8	28.8	28.8	68	19.6	2	4	315	0.00	30.134 
21:05	28.8	28.8	28.8	68	19.6	3	6	270	0.00	30.133 
21:10	28.8	28.8	28.8	68	19.6	2	5	270	0.00	30.133 
21:15	28.7	28.7	28.7	68	19.5	2	7	270	0.00	30.135 
21:20	28.7	28.7	28.7	68	19.5	2	6	292	0.00	30.136 
21:25	28.7	28.7	28.7	68	19.5	2	6	270	0.00	30.145 
21:30	28.7	28.7	28.7	68	19.5	1	6	315	0.00	30.146 
21:35	28.5	28.5	28.5	68	19.3	1	4	315	0.00	30.143 
21:40	28.5	28.5	28.5	68	19.3	1	5	315	0.00	30.145 
21:45	28.5	28.5	28.5	68	19.3	1	4	338	0.00	30.147 
21:50	28.5	28.5	28.5	68	19.3	1	3	270	0.00	30.148 
21:55	28.4	28.4	28.4	68	19.2	1	4	270	0.00	30.149 
22:00	28.4	28.4	28.4	68	19.2	2	5	270	0.00	30.151 
22:05	28.4	28.4	28.4	68	19.2	2	4	270	0.00	30.153 
22:10	28.4	28.4	28.4	68	19.2	2	6	270	0.00	30.155 
22:15	28.4	28.4	28.4	68	19.2	2	5	315	0.00	30.155 
22:20	28.2	28.2	28.2	68	19.0	2	6	315	0.00	30.158 
22:25	28.2	28.2	28.2	67	18.7	3	6	270	0.00	30.158 
22:30	28.2	28.2	28.2	68	19.0	2	4	248	0.00	30.159 
22:35	28.2	28.2	28.2	68	19.0	1	4	270	0.00	30.162 
22:40	28.1	28.1	28.1	68	18.9	1	3	248	0.00	30.164 
22:45	28.1	28.1	28.1	67	18.6	2	6	248	0.00	30.165 
22:50	28.1	28.1	28.1	68	18.9	1	4	315	0.00	30.167 
22:55	28.1	28.1	28.1	68	18.9	1	3	270	0.00	30.167 
23:00	28.1	28.1	28.1	67	18.6	2	5	248	0.00	30.169 
23:05	27.9	27.9	27.9	68	18.7	2	6	270	0.00	30.170 
23:10	27.9	27.9	27.9	67	18.4	1	4	248	0.00	30.177 
23:15	27.9	27.9	27.9	67	18.4	1	3	248	0.00	30.177 
23:20	27.9	27.9	27.9	66	18.0	2	9	338	0.00	30.178 
23:25	27.9	27.9	27.9	65	17.7	2	5	270	0.00	30.179 
23:30	27.8	27.8	27.8	66	17.9	1	4	338	0.00	30.180 
23:35	27.8	27.8	27.8	65	17.6	2	5	315	0.00	30.180 
23:40	27.8	27.8	27.8	65	17.6	2	5	292	0.00	30.183 
23:45	27.8	27.8	27.8	65	17.6	1	3	338	0.00	30.187 
23:50	27.6	27.6	27.6	65	17.4	1	4	270	0.00	30.191 
23:55	27.6	27.6	27.6	65	17.4	3	10	315	0.00	30.193 

CoCoRaHS
IN-AL-39
A2 Web Hosting
Creative Commons License
GoDaddy
search engine by freefind advanced

loaded 2018-11-15 04:10:14 • last modified 2010-11-18 10:43:29
Privacy PolicyDisclaimer
• wx.awcolley.com is powered by PmWiki v.2002016 •
• all content (unless otherwise noted) © 2018 A W Colley